createdAt,value
2019-02-18T00:05:01.223Z,9.67
2019-02-18T00:10:08.854Z,9.19
2019-02-18T00:15:16.528Z,9.34
2019-02-18T00:20:24.162Z,9.42
2019-02-18T00:25:31.810Z,9.34
2019-02-18T00:30:39.459Z,10.28
2019-02-18T00:35:51.177Z,12.13
2019-02-18T00:40:48.805Z,11.51
2019-02-18T00:45:56.703Z,11.47
2019-02-18T00:51:04.384Z,10.27
2019-02-18T00:56:12.058Z,10.36
2019-02-18T01:01:20.156Z,10.69
2019-02-18T01:06:27.826Z,11.18
2019-02-18T01:11:35.437Z,11.79
2019-02-18T01:16:43.110Z,12.40
2019-02-18T01:21:50.788Z,11.43
2019-02-18T01:26:58.510Z,11.16
2019-02-18T01:32:06.160Z,11.19
2019-02-18T01:37:13.864Z,11.91
2019-02-18T01:42:21.505Z,11.65
2019-02-18T01:47:29.269Z,12.16
2019-02-18T01:52:36.939Z,11.31
2019-02-18T01:57:44.682Z,13.15
2019-02-18T02:02:52.327Z,11.97
2019-02-18T02:08:00.007Z,11.85
2019-02-18T02:13:07.624Z,11.63
2019-02-18T02:18:15.335Z,11.02
2019-02-18T02:23:22.946Z,12.86
2019-02-18T02:28:30.663Z,11.77
2019-02-18T02:33:38.326Z,13.16
2019-02-18T02:38:45.998Z,11.82
2019-02-18T02:43:53.617Z,13.84
2019-02-18T02:49:01.349Z,12.69
2019-02-18T02:54:08.987Z,12.98
2019-02-18T02:59:16.693Z,15.31
2019-02-18T03:04:24.356Z,14.16
2019-02-18T03:09:32.027Z,17.12
2019-02-18T03:14:39.665Z,14.83
2019-02-18T03:19:47.449Z,14.70
2019-02-18T03:24:55.093Z,14.85
2019-02-18T03:30:02.971Z,14.44
2019-02-18T03:35:10.646Z,14.10
2019-02-18T03:40:18.313Z,14.26
2019-02-18T03:45:25.945Z,14.37
2019-02-18T03:50:33.873Z,14.28
2019-02-18T03:55:41.496Z,13.77
2019-02-18T04:00:49.267Z,13.85
2019-02-18T04:05:56.915Z,13.45
2019-02-18T04:11:04.581Z,13.03
2019-02-18T04:16:12.245Z,12.94
2019-02-18T04:21:19.901Z,13.18
2019-02-18T04:26:27.518Z,13.15
2019-02-18T04:31:35.464Z,12.81
2019-02-18T04:36:43.089Z,12.93
2019-02-18T04:41:50.781Z,12.64
2019-02-18T04:46:58.430Z,12.35
2019-02-18T04:52:06.150Z,12.97
2019-02-18T04:57:13.778Z,13.22
2019-02-18T05:02:21.477Z,13.99
2019-02-18T05:07:29.176Z,12.97
2019-02-18T05:12:36.879Z,13.43
2019-02-18T05:17:44.565Z,13.97
2019-02-18T05:22:52.500Z,16.43
2019-02-18T05:28:00.503Z,16.03
2019-02-18T05:33:08.169Z,13.96
2019-02-18T05:38:15.784Z,13.59
2019-02-18T05:43:23.417Z,14.36
2019-02-18T05:48:33.812Z,14.67
2019-02-18T05:53:38.224Z,17.49
2019-02-18T05:58:45.844Z,15.13
2019-02-18T06:03:53.484Z,15.07
2019-02-18T06:09:01.165Z,17.99
2019-02-18T06:14:08.824Z,15.59
2019-02-18T06:19:16.441Z,17.81
2019-02-18T06:24:24.118Z,14.95
2019-02-18T06:29:31.741Z,16.32
2019-02-18T06:34:39.410Z,17.08
2019-02-18T06:39:47.699Z,16.83
2019-02-18T06:44:55.352Z,16.81
2019-02-18T06:50:03.048Z,19.40
2019-02-18T06:55:10.709Z,18.52
2019-02-18T07:00:18.350Z,14.56
2019-02-18T07:10:32.153Z,14.37
2019-02-18T07:15:39.792Z,16.97
2019-02-18T07:20:47.449Z,20.36
2019-02-18T07:25:55.198Z,17.87
2019-02-18T07:31:03.008Z,19.68
2019-02-18T07:36:10.629Z,17.77
2019-02-18T07:41:18.312Z,18.19
2019-02-18T07:46:26.163Z,14.75
2019-02-18T07:51:33.810Z,14.89
2019-02-18T07:56:41.469Z,14.23
2019-02-18T08:01:49.161Z,14.31
2019-02-18T08:06:56.805Z,12.99
2019-02-18T08:12:04.457Z,16.06
2019-02-18T08:17:12.183Z,13.65
2019-02-18T08:22:19.841Z,12.48
2019-02-18T08:27:27.833Z,12.49
2019-02-18T08:32:35.461Z,12.31
2019-02-18T08:37:43.177Z,11.81
2019-02-18T08:42:50.889Z,13.00
2019-02-18T08:47:58.450Z,11.89
2019-02-18T08:53:06.321Z,12.11
2019-02-18T08:58:13.956Z,11.42
2019-02-18T09:03:21.707Z,11.44
2019-02-18T09:08:29.378Z,13.50
2019-02-18T09:13:37.038Z,12.22
2019-02-18T09:18:44.676Z,13.04
2019-02-18T09:23:52.341Z,12.76
2019-02-18T09:28:59.984Z,12.40
2019-02-18T09:34:07.730Z,12.51
2019-02-18T09:39:15.356Z,12.66
2019-02-18T09:44:23.068Z,12.14
2019-02-18T09:49:37.441Z,12.92
2019-02-18T09:54:35.132Z,11.96
2019-02-18T09:59:42.780Z,11.65
2019-02-18T10:04:50.432Z,11.84
2019-02-18T10:09:58.069Z,11.45
2019-02-18T10:15:14.545Z,11.83
2019-02-18T10:20:12.160Z,13.40
2019-02-18T10:25:19.864Z,12.26
2019-02-18T10:30:27.490Z,11.94
2019-02-18T10:35:35.145Z,12.87
2019-02-18T10:40:42.852Z,11.98
2019-02-18T10:45:50.486Z,12.25
2019-02-18T10:50:58.369Z,14.02
2019-02-18T10:56:05.992Z,12.89
2019-02-18T11:01:13.749Z,12.42
2019-02-18T11:06:21.452Z,14.37
2019-02-18T11:11:29.085Z,12.61
2019-02-18T11:16:36.734Z,14.28
2019-02-18T11:21:44.568Z,14.21
2019-02-18T11:26:52.185Z,12.66
2019-02-18T11:31:59.898Z,12.55
2019-02-18T11:37:07.609Z,13.25
2019-02-18T11:42:15.316Z,13.24
2019-02-18T11:47:22.937Z,12.72
2019-02-18T11:52:30.723Z,12.89
2019-02-18T11:57:38.338Z,12.61
2019-02-18T12:02:45.998Z,13.09
2019-02-18T12:07:53.626Z,12.41
2019-02-18T12:13:01.315Z,12.72
2019-02-18T12:18:08.982Z,12.96
2019-02-18T12:23:16.667Z,13.51
2019-02-18T12:28:24.354Z,12.61
2019-02-18T12:33:32.052Z,13.02
2019-02-18T12:38:41.157Z,12.42
2019-02-18T12:43:46.901Z,11.83
2019-02-18T12:48:54.553Z,12.58
2019-02-18T12:54:05.135Z,12.96
2019-02-18T12:59:09.505Z,12.99
2019-02-18T13:04:17.226Z,11.63
2019-02-18T13:09:24.861Z,11.42
2019-02-18T13:14:32.587Z,11.12
2019-02-18T13:19:40.222Z,10.76
2019-02-18T13:24:47.879Z,9.91
2019-02-18T13:29:55.485Z,9.95
2019-02-18T13:35:03.153Z,9.57
2019-02-18T13:40:10.763Z,10.01
2019-02-18T13:45:18.454Z,9.64
2019-02-18T13:50:26.085Z,9.32
2019-02-18T13:55:34.078Z,9.05
2019-02-18T14:00:41.685Z,9.15
2019-02-18T14:05:49.405Z,9.87
2019-02-18T14:10:57.019Z,9.69
2019-02-18T14:16:04.724Z,10.36
2019-02-18T14:21:12.388Z,7.89
2019-02-18T14:26:20.042Z,9.76
2019-02-18T14:31:28.275Z,9.85
2019-02-18T14:36:35.928Z,9.82
2019-02-18T14:41:43.545Z,9.85
2019-02-18T14:46:51.259Z,9.54
2019-02-18T14:51:58.872Z,9.61
2019-02-18T14:57:13.903Z,10.40
2019-02-18T15:02:11.580Z,10.32
2019-02-18T15:07:19.279Z,10.48
2019-02-18T15:12:32.912Z,10.22
2019-02-18T15:17:34.072Z,11.80
2019-02-18T15:22:41.725Z,10.56
2019-02-18T15:27:49.518Z,11.34
2019-02-18T15:32:57.134Z,12.54
2019-02-18T15:38:04.988Z,11.43
2019-02-18T15:43:12.642Z,11.06
2019-02-18T15:48:20.338Z,12.58
2019-02-18T15:53:28.005Z,11.76
2019-02-18T15:58:35.730Z,12.11
2019-02-18T16:03:43.405Z,12.37
2019-02-18T16:08:50.666Z,13.25
2019-02-18T16:13:58.312Z,12.74
2019-02-18T16:19:05.960Z,12.70
2019-02-18T16:24:19.965Z,12.64
2019-02-18T16:29:20.868Z,12.04
2019-02-18T16:34:28.619Z,11.44
2019-02-18T16:39:36.276Z,12.25
2019-02-18T16:44:43.905Z,13.46
2019-02-18T16:49:52.310Z,11.89
2019-02-18T16:55:00.059Z,13.30
2019-02-18T17:00:07.734Z,13.68
2019-02-18T17:05:15.680Z,12.57
2019-02-18T17:10:23.369Z,14.06
2019-02-18T17:15:31.006Z,15.45
2019-02-18T17:20:38.677Z,15.84
2019-02-18T17:25:46.291Z,14.07
2019-02-18T17:30:53.999Z,13.18
2019-02-18T17:36:01.623Z,13.45
2019-02-18T17:41:09.360Z,13.16
2019-02-18T17:46:17.019Z,14.03
2019-02-18T17:51:24.692Z,13.91
2019-02-18T17:56:32.353Z,13.52
2019-02-18T18:01:40.392Z,13.77
2019-02-18T18:06:48.009Z,13.96
2019-02-18T18:11:55.669Z,14.69
2019-02-18T18:17:03.356Z,16.46
2019-02-18T18:22:11.159Z,14.04
2019-02-18T18:27:19.568Z,14.35
2019-02-18T18:32:26.860Z,14.89
2019-02-18T18:37:34.518Z,14.53
2019-02-18T18:42:42.244Z,15.55
2019-02-18T18:47:49.856Z,18.82
2019-02-18T18:52:57.613Z,20.11
2019-02-18T18:58:05.237Z,19.66
2019-02-18T19:03:12.937Z,18.28
2019-02-18T19:08:20.561Z,18.58
2019-02-18T19:13:28.350Z,16.49
2019-02-18T19:18:35.960Z,16.78
2019-02-18T19:23:43.640Z,18.83
2019-02-18T19:28:51.305Z,18.44
2019-02-18T19:33:58.999Z,18.87
2019-02-18T19:39:06.632Z,20.38
2019-02-18T19:44:14.350Z,20.60
2019-02-18T19:49:21.994Z,20.64
2019-02-18T19:54:29.664Z,18.61
2019-02-18T19:59:37.720Z,18.05
2019-02-18T20:04:45.436Z,20.17
2019-02-18T20:09:53.089Z,18.39
2019-02-18T20:15:00.820Z,18.48
2019-02-18T20:20:08.452Z,18.59
2019-02-18T20:25:16.112Z,18.00
2019-02-18T20:30:23.753Z,17.75
2019-02-18T20:35:31.485Z,18.02
2019-02-18T20:40:39.105Z,17.66
2019-02-18T20:45:46.801Z,18.13
2019-02-18T20:50:54.692Z,17.29
2019-02-18T20:56:02.326Z,19.23
2019-02-18T21:01:09.973Z,18.76
2019-02-18T21:06:17.924Z,17.20
2019-02-18T21:11:28.097Z,18.19
2019-02-18T21:16:25.830Z,18.13
2019-02-18T21:21:33.462Z,16.21
2019-02-18T21:26:47.481Z,16.03
2019-02-18T21:31:45.088Z,16.41
2019-02-18T21:36:52.824Z,16.33
2019-02-18T21:42:00.488Z,16.45
2019-02-18T21:47:08.185Z,16.38
2019-02-18T21:52:15.813Z,16.30
2019-02-18T21:57:24.040Z,16.27
2019-02-18T22:03:31.153Z,16.67
2019-02-18T22:08:28.762Z,15.40
2019-02-18T22:13:36.400Z,15.39
2019-02-18T22:18:44.116Z,15.33
2019-02-18T22:23:51.785Z,16.06
2019-02-18T22:28:59.440Z,15.97
2019-02-18T22:34:07.082Z,16.45
2019-02-18T22:39:14.761Z,18.01
2019-02-18T22:44:22.476Z,17.07
2019-02-18T22:49:30.100Z,16.49
2019-02-18T22:54:37.753Z,16.81
2019-02-18T22:59:45.400Z,17.33
2019-02-18T23:04:53.085Z,17.33
2019-02-18T23:10:00.723Z,17.23
2019-02-18T23:15:08.428Z,17.59
2019-02-18T23:20:16.044Z,18.09
2019-02-18T23:25:23.781Z,17.99
2019-02-18T23:30:31.404Z,17.21
2019-02-18T23:35:39.096Z,17.77
2019-02-18T23:40:46.740Z,18.63
2019-02-18T23:45:54.461Z,19.98
2019-02-18T23:51:02.106Z,20.26
2019-02-18T23:56:09.799Z,21.78
